sensor_id;sensor_type;location;lat;lon;timestamp;pressure;altitude;pressure_sealevel;temperature;humidity
18436;BME280;9346;52.006;4.720;2022-10-19T00:01:40;102865.34;;;11.40;100.00
18436;BME280;9346;52.006;4.720;2022-10-19T00:04:08;102853.44;;;11.39;100.00
18436;BME280;9346;52.006;4.720;2022-10-19T00:06:36;102857.28;;;11.38;100.00
18436;BME280;9346;52.006;4.720;2022-10-19T00:09:05;102854.75;;;11.37;100.00
18436;BME280;9346;52.006;4.720;2022-10-19T00:11:34;102850.28;;;11.35;100.00
18436;BME280;9346;52.006;4.720;2022-10-19T00:14:04;102855.59;;;11.37;100.00
18436;BME280;9346;52.006;4.720;2022-10-19T00:16:33;102870.47;;;11.36;100.00
18436;BME280;9346;52.006;4.720;2022-10-19T00:19:04;102857.53;;;11.37;100.00
18436;BME280;9346;52.006;4.720;2022-10-19T00:21:32;102859.44;;;11.36;100.00
18436;BME280;9346;52.006;4.720;2022-10-19T00:23:59;102856.91;;;11.34;100.00
18436;BME280;9346;52.006;4.720;2022-10-19T00:26:26;102853.50;;;11.32;100.00
18436;BME280;9346;52.006;4.720;2022-10-19T00:28:53;102859.88;;;11.33;100.00
18436;BME280;9346;52.006;4.720;2022-10-19T00:31:23;102858.81;;;11.34;100.00
18436;BME280;9346;52.006;4.720;2022-10-19T00:33:51;102865.41;;;11.33;100.00
18436;BME280;9346;52.006;4.720;2022-10-19T00:36:20;102861.56;;;11.34;100.00
18436;BME280;9346;52.006;4.720;2022-10-19T00:38:48;102859.88;;;11.33;100.00
18436;BME280;9346;52.006;4.720;2022-10-19T00:41:15;102868.78;;;11.35;100.00
18436;BME280;9346;52.006;4.720;2022-10-19T00:43:53;102856.91;;;11.34;100.00
18436;BME280;9346;52.006;4.720;2022-10-19T00:46:24;102871.78;;;11.33;100.00
18436;BME280;9346;52.006;4.720;2022-10-19T00:48:54;102875.59;;;11.32;100.00
18436;BME280;9346;52.006;4.720;2022-10-19T00:51:23;102872.22;;;11.30;100.00
18436;BME280;9346;52.006;4.720;2022-10-19T00:53:52;102872.47;;;11.29;100.00
18436;BME280;9346;52.006;4.720;2022-10-19T00:56:19;102873.28;;;11.29;100.00
18436;BME280;9346;52.006;4.720;2022-10-19T00:58:46;102879.88;;;11.28;100.00
18436;BME280;9346;52.006;4.720;2022-10-19T01:01:16;102873.78;;;11.26;100.00
18436;BME280;9346;52.006;4.720;2022-10-19T01:03:46;102874.00;;;11.25;100.00
18436;BME280;9346;52.006;4.720;2022-10-19T01:06:14;102863.19;;;11.23;100.00
18436;BME280;9346;52.006;4.720;2022-10-19T01:08:42;102866.78;;;11.24;100.00
18436;BME280;9346;52.006;4.720;2022-10-19T01:11:22;102861.50;;;11.22;100.00
18436;BME280;9346;52.006;4.720;2022-10-19T01:14:01;102863.44;;;11.22;100.00
18436;BME280;9346;52.006;4.720;2022-10-19T01:16:39;102858.97;;;11.21;100.00
18436;BME280;9346;52.006;4.720;2022-10-19T01:19:32;102855.16;;;11.22;100.00
18436;BME280;9346;52.006;4.720;2022-10-19T01:22:08;102853.66;;;11.19;100.00
18436;BME280;9346;52.006;4.720;2022-10-19T01:24:51;102855.59;;;11.19;100.00
18436;BME280;9346;52.006;4.720;2022-10-19T01:27:37;102856.06;;;11.16;100.00
18436;BME280;9346;52.006;4.720;2022-10-19T01:30:11;102860.97;;;11.14;100.00
18436;BME280;9346;52.006;4.720;2022-10-19T01:32:53;102847.78;;;11.16;100.00
18436;BME280;9346;52.006;4.720;2022-10-19T01:35:29;102839.13;;;11.12;100.00
18436;BME280;9346;52.006;4.720;2022-10-19T01:38:17;102844.63;;;11.12;100.00
18436;BME280;9346;52.006;4.720;2022-10-19T01:40:54;102837.66;;;11.10;100.00
18436;BME280;9346;52.006;4.720;2022-10-19T01:43:29;102836.44;;;11.06;100.00
18436;BME280;9346;52.006;4.720;2022-10-19T01:46:06;102837.28;;;11.06;100.00
18436;BME280;9346;52.006;4.720;2022-10-19T01:48:37;102830.09;;;11.05;100.00
18436;BME280;9346;52.006;4.720;2022-10-19T01:51:10;102833.28;;;11.02;100.00
18436;BME280;9346;52.006;4.720;2022-10-19T01:53:42;102834.59;;;11.00;100.00
18436;BME280;9346;52.006;4.720;2022-10-19T01:56:11;102838.69;;;10.97;100.00
18436;BME280;9346;52.006;4.720;2022-10-19T01:58:42;102833.16;;;10.97;100.00
18436;BME280;9346;52.006;4.720;2022-10-19T02:01:15;102832.31;;;10.97;100.00
18436;BME280;9346;52.006;4.720;2022-10-19T02:03:44;102825.34;;;10.94;100.00
18436;BME280;9346;52.006;4.720;2022-10-19T02:06:13;102828.31;;;10.93;100.00
18436;BME280;9346;52.006;4.720;2022-10-19T02:08:43;102831.31;;;10.91;100.00
18436;BME280;9346;52.006;4.720;2022-10-19T02:11:12;102834.28;;;10.90;100.00
18436;BME280;9346;52.006;4.720;2022-10-19T02:13:40;102837.97;;;10.84;100.00
18436;BME280;9346;52.006;4.720;2022-10-19T02:16:14;102837.97;;;10.84;100.00
18436;BME280;9346;52.006;4.720;2022-10-19T02:18:46;102834.56;;;10.82;100.00
18436;BME280;9346;52.006;4.720;2022-10-19T02:21:14;102823.41;;;10.77;100.00
18436;BME280;9346;52.006;4.720;2022-10-19T02:23:42;102817.91;;;10.77;100.00
18436;BME280;9346;52.006;4.720;2022-10-19T02:26:14;102816.19;;;10.76;100.00
18436;BME280;9346;52.006;4.720;2022-10-19T02:28:41;102806.47;;;10.73;100.00
18436;BME280;9346;52.006;4.720;2022-10-19T02:31:08;102804.56;;;10.74;100.00
18436;BME280;9346;52.006;4.720;2022-10-19T02:33:38;102808.59;;;10.71;100.00
18436;BME280;9346;52.006;4.720;2022-10-19T02:36:06;102801.41;;;10.70;100.00
18436;BME280;9346;52.006;4.720;2022-10-19T02:38:33;102794.22;;;10.69;100.00
18436;BME280;9346;52.006;4.720;2022-10-19T02:41:05;102797.22;;;10.68;100.00
18436;BME280;9346;52.006;4.720;2022-10-19T02:43:36;102794.44;;;10.68;100.00
18436;BME280;9346;52.006;4.720;2022-10-19T02:46:07;102801.03;;;10.67;100.00
18436;BME280;9346;52.006;4.720;2022-10-19T02:48:39;102799.34;;;10.66;100.00
18436;BME280;9346;52.006;4.720;2022-10-19T02:51:26;102799.34;;;10.66;100.00
18436;BME280;9346;52.006;4.720;2022-10-19T02:53:53;102792.16;;;10.65;100.00
18436;BME280;9346;52.006;4.720;2022-10-19T02:56:20;102796.59;;;10.66;100.00
18436;BME280;9346;52.006;4.720;2022-10-19T02:58:47;102793.22;;;10.64;100.00
18436;BME280;9346;52.006;4.720;2022-10-19T03:01:14;102790.25;;;10.65;100.00
18436;BME280;9346;52.006;4.720;2022-10-19T03:03:43;102788.75;;;10.63;100.00
18436;BME280;9346;52.006;4.720;2022-10-19T03:06:10;102781.56;;;10.62;100.00
18436;BME280;9346;52.006;4.720;2022-10-19T03:08:37;102779.91;;;10.61;100.00
18436;BME280;9346;52.006;4.720;2022-10-19T03:11:04;102777.59;;;10.58;100.00
18436;BME280;9346;52.006;4.720;2022-10-19T03:13:31;102781.41;;;10.57;100.00
18436;BME280;9346;52.006;4.720;2022-10-19T03:16:05;102784.16;;;10.57;100.00
18436;BME280;9346;52.006;4.720;2022-10-19T03:18:32;102779.94;;;10.54;100.00
18436;BME280;9346;52.006;4.720;2022-10-19T03:21:07;102784.41;;;10.55;100.00
18436;BME280;9346;52.006;4.720;2022-10-19T03:23:34;102785.69;;;10.53;100.00
18436;BME280;9346;52.006;4.720;2022-10-19T03:26:02;102787.00;;;10.50;100.00
18436;BME280;9346;52.006;4.720;2022-10-19T03:28:29;102782.56;;;10.49;100.00
18436;BME280;9346;52.006;4.720;2022-10-19T03:30:56;102781.09;;;10.47;100.00
18436;BME280;9346;52.006;4.720;2022-10-19T03:33:23;102784.91;;;10.46;100.00
18436;BME280;9346;52.006;4.720;2022-10-19T03:35:51;102784.91;;;10.46;100.00
18436;BME280;9346;52.006;4.720;2022-10-19T03:38:39;102776.03;;;10.44;100.00
18436;BME280;9346;52.006;4.720;2022-10-19T03:41:07;102781.53;;;10.44;100.00
18436;BME280;9346;52.006;4.720;2022-10-19T03:43:34;102774.34;;;10.43;100.00
18436;BME280;9346;52.006;4.720;2022-10-19T03:46:02;102768.84;;;10.43;100.00
18436;BME280;9346;52.006;4.720;2022-10-19T03:48:29;102771.81;;;10.41;100.00
18436;BME280;9346;52.006;4.720;2022-10-19T03:50:59;102778.19;;;10.42;100.00
18436;BME280;9346;52.006;4.720;2022-10-19T03:53:27;102777.34;;;10.41;100.00
18436;BME280;9346;52.006;4.720;2022-10-19T03:56:01;102765.94;;;10.38;100.00
18436;BME280;9346;52.006;4.720;2022-10-19T03:58:30;102768.06;;;10.36;100.00
18436;BME280;9346;52.006;4.720;2022-10-19T04:00:57;102765.75;;;10.33;100.00
18436;BME280;9346;52.006;4.720;2022-10-19T04:03:24;102770.63;;;10.31;100.00
18436;BME280;9346;52.006;4.720;2022-10-19T04:05:51;102774.47;;;10.30;100.00
18436;BME280;9346;52.006;4.720;2022-10-19T04:08:18;102775.78;;;10.27;100.00
18436;BME280;9346;52.006;4.720;2022-10-19T04:10:45;102776.84;;;10.26;100.00
18436;BME280;9346;52.006;4.720;2022-10-19T04:13:13;102771.34;;;10.26;100.00
18436;BME280;9346;52.006;4.720;2022-10-19T04:15:40;102764.13;;;10.25;100.00
18436;BME280;9346;52.006;4.720;2022-10-19T04:18:07;102763.53;;;10.23;100.00
18436;BME280;9346;52.006;4.720;2022-10-19T04:20:34;102765.44;;;10.23;100.00
18436;BME280;9346;52.006;4.720;2022-10-19T04:23:03;102767.78;;;10.19;100.00
18436;BME280;9346;52.006;4.720;2022-10-19T04:25:30;102769.72;;;10.19;100.00
18436;BME280;9346;52.006;4.720;2022-10-19T04:27:57;102773.53;;;10.18;100.00
18436;BME280;9346;52.006;4.720;2022-10-19T04:30:25;102766.56;;;10.15;100.00
18436;BME280;9346;52.006;4.720;2022-10-19T04:32:52;102760.19;;;10.15;100.00
18436;BME280;9346;52.006;4.720;2022-10-19T04:35:19;102766.56;;;10.15;100.00
18436;BME280;9346;52.006;4.720;2022-10-19T04:37:47;102750.25;;;10.14;100.00
18436;BME280;9346;52.006;4.720;2022-10-19T04:40:14;102748.34;;;10.14;100.00
18436;BME280;9346;52.006;4.720;2022-10-19T04:42:40;102758.53;;;10.14;100.00
18436;BME280;9346;52.006;4.720;2022-10-19T04:45:08;102759.81;;;10.11;100.00
18436;BME280;9346;52.006;4.720;2022-10-19T04:47:37;102764.09;;;10.07;100.00
18436;BME280;9346;52.006;4.720;2022-10-19T04:50:04;102763.66;;;10.04;100.00
18436;BME280;9346;52.006;4.720;2022-10-19T04:52:32;102772.38;;;10.01;100.00
18436;BME280;9346;52.006;4.720;2022-10-19T04:55:00;102766.00;;;10.00;100.00
18436;BME280;9346;52.006;4.720;2022-10-19T04:57:27;102759.69;;;10.00;100.00
18436;BME280;9346;52.006;4.720;2022-10-19T04:59:54;102762.44;;;10.00;100.00
18436;BME280;9346;52.006;4.720;2022-10-19T05:02:21;102769.22;;;9.97;100.00
18436;BME280;9346;52.006;4.720;2022-10-19T05:04:50;102771.75;;;9.99;100.00
18436;BME280;9346;52.006;4.720;2022-10-19T05:07:17;102768.38;;;9.97;100.00
18436;BME280;9346;52.006;4.720;2022-10-19T05:09:44;102768.38;;;9.97;100.00
18436;BME280;9346;52.006;4.720;2022-10-19T05:12:11;102770.50;;;9.95;100.00
18436;BME280;9346;52.006;4.720;2022-10-19T05:14:38;102767.97;;;9.93;100.00
18436;BME280;9346;52.006;4.720;2022-10-19T05:17:05;102758.03;;;9.92;100.00
18436;BME280;9346;52.006;4.720;2022-10-19T05:19:32;102755.72;;;9.89;100.00
18436;BME280;9346;52.006;4.720;2022-10-19T05:22:01;102754.88;;;9.89;100.00
18436;BME280;9346;52.006;4.720;2022-10-19T05:24:28;102760.00;;;9.85;100.00
18436;BME280;9346;52.006;4.720;2022-10-19T05:26:56;102758.28;;;9.84;100.00
18436;BME280;9346;52.006;4.720;2022-10-19T05:29:24;102745.63;;;9.83;100.00
18436;BME280;9346;52.006;4.720;2022-10-19T05:31:50;102743.94;;;9.82;100.00
18436;BME280;9346;52.006;4.720;2022-10-19T05:34:18;102746.91;;;9.81;100.00
18436;BME280;9346;52.006;4.720;2022-10-19T05:36:44;102744.16;;;9.81;100.00
18436;BME280;9346;52.006;4.720;2022-10-19T05:39:15;102742.47;;;9.80;100.00
18436;BME280;9346;52.006;4.720;2022-10-19T05:41:43;102750.09;;;9.78;100.00
18436;BME280;9346;52.006;4.720;2022-10-19T05:44:13;102754.16;;;9.75;100.00
18436;BME280;9346;52.006;4.720;2022-10-19T05:46:42;102757.13;;;9.74;100.00
18436;BME280;9346;52.006;4.720;2022-10-19T05:49:09;102752.69;;;9.73;100.00
18436;BME280;9346;52.006;4.720;2022-10-19T05:51:37;102755.88;;;9.70;100.00
18436;BME280;9346;52.006;4.720;2022-10-19T05:54:04;102752.97;;;9.65;100.00
18436;BME280;9346;52.006;4.720;2022-10-19T05:56:34;102748.53;;;9.64;100.00
18436;BME280;9346;52.006;4.720;2022-10-19T05:59:03;102742.41;;;9.62;100.00
18436;BME280;9346;52.006;4.720;2022-10-19T06:01:31;102736.03;;;9.61;100.00
18436;BME280;9346;52.006;4.720;2022-10-19T06:03:59;102737.13;;;9.60;100.00
18436;BME280;9346;52.006;4.720;2022-10-19T06:06:29;102730.53;;;9.61;100.00
18436;BME280;9346;52.006;4.720;2022-10-19T06:08:56;102729.94;;;9.59;100.00
18436;BME280;9346;52.006;4.720;2022-10-19T06:11:25;102729.06;;;9.59;100.00
18436;BME280;9346;52.006;4.720;2022-10-19T06:13:56;102730.75;;;9.60;100.00
18436;BME280;9346;52.006;4.720;2022-10-19T06:16:25;102729.72;;;9.61;100.00
18436;BME280;9346;52.006;4.720;2022-10-19T06:18:53;102730.53;;;9.61;100.00
18436;BME280;9346;52.006;4.720;2022-10-19T06:21:21;102733.50;;;9.60;100.00
18436;BME280;9346;52.006;4.720;2022-10-19T06:23:51;102725.25;;;9.60;100.00
18436;BME280;9346;52.006;4.720;2022-10-19T06:26:18;102726.75;;;9.62;100.00
18436;BME280;9346;52.006;4.720;2022-10-19T06:28:46;102725.88;;;9.62;100.00
18436;BME280;9346;52.006;4.720;2022-10-19T06:31:15;102730.53;;;9.61;100.00
18436;BME280;9346;52.006;4.720;2022-10-19T06:33:43;102732.25;;;9.62;100.00
18436;BME280;9346;52.006;4.720;2022-10-19T06:36:13;102737.75;;;9.62;100.00
18436;BME280;9346;52.006;4.720;2022-10-19T06:38:41;102724.59;;;9.64;100.00
18436;BME280;9346;52.006;4.720;2022-10-19T06:41:09;102725.66;;;9.63;100.00
18436;BME280;9346;52.006;4.720;2022-10-19T06:43:38;102738.34;;;9.64;100.00
18436;BME280;9346;52.006;4.720;2022-10-19T06:46:10;102741.09;;;9.64;100.00
18436;BME280;9346;52.006;4.720;2022-10-19T06:48:40;102731.16;;;9.63;100.00
18436;BME280;9346;52.006;4.720;2022-10-19T06:51:07;102734.31;;;9.67;100.00
18436;BME280;9346;52.006;4.720;2022-10-19T06:53:34;102738.13;;;9.66;100.00
18436;BME280;9346;52.006;4.720;2022-10-19T06:56:03;102742.81;;;9.65;100.00
18436;BME280;9346;52.006;4.720;2022-10-19T06:58:33;102741.09;;;9.64;100.00
18436;BME280;9346;52.006;4.720;2022-10-19T07:01:01;102748.91;;;9.67;100.00
18436;BME280;9346;52.006;4.720;2022-10-19T07:03:29;102739.84;;;9.67;100.00
18436;BME280;9346;52.006;4.720;2022-10-19T07:06:00;102736.81;;;9.68;100.00
18436;BME280;9346;52.006;4.720;2022-10-19T07:08:28;102745.72;;;9.70;100.00
18436;BME280;9346;52.006;4.720;2022-10-19T07:10:59;102736.38;;;9.71;100.00
18436;BME280;9346;52.006;4.720;2022-10-19T07:13:27;102722.41;;;9.73;100.00
18436;BME280;9346;52.006;4.720;2022-10-19T07:15:56;102726.88;;;9.74;100.00
18436;BME280;9346;52.006;4.720;2022-10-19T07:18:24;102727.69;;;9.74;100.00
18436;BME280;9346;52.006;4.720;2022-10-19T07:20:55;102722.41;;;9.73;100.00
18436;BME280;9346;52.006;4.720;2022-10-19T07:23:26;102730.44;;;9.74;100.00
18436;BME280;9346;52.006;4.720;2022-10-19T07:25:54;102732.97;;;9.76;100.00
18436;BME280;9346;52.006;4.720;2022-10-19T07:28:26;102743.75;;;9.77;100.00
18436;BME280;9346;52.006;4.720;2022-10-19T07:30:53;102749.03;;;9.79;100.00
18436;BME280;9346;52.006;4.720;2022-10-19T07:33:20;102746.91;;;9.81;100.00
18436;BME280;9346;52.006;4.720;2022-10-19T07:35:47;102747.50;;;9.83;100.00
18436;BME280;9346;52.006;4.720;2022-10-19T07:38:14;102744.75;;;9.83;100.00
18436;BME280;9346;52.006;4.720;2022-10-19T07:40:43;102746.47;;;9.84;100.00
18436;BME280;9346;52.006;4.720;2022-10-19T07:43:10;102754.28;;;9.87;100.00
18436;BME280;9346;52.006;4.720;2022-10-19T07:45:37;102759.34;;;9.90;100.00
18436;BME280;9346;52.006;4.720;2022-10-19T07:48:05;102762.25;;;9.95;100.00
18436;BME280;9346;52.006;4.720;2022-10-19T07:50:32;102755.69;;;9.96;100.00
18436;BME280;9346;52.006;4.720;2022-10-19T07:52:58;102751.88;;;9.97;100.00
18436;BME280;9346;52.006;4.720;2022-10-19T07:55:27;102757.97;;;9.99;100.00
18436;BME280;9346;52.006;4.720;2022-10-19T07:57:56;102756.69;;;10.01;100.00
18436;BME280;9346;52.006;4.720;2022-10-19T08:00:25;102751.56;;;10.05;100.00
18436;BME280;9346;52.006;4.720;2022-10-19T08:02:55;102745.88;;;10.06;100.00
18436;BME280;9346;52.006;4.720;2022-10-19T08:05:22;102730.59;;;10.10;100.00
18436;BME280;9346;52.006;4.720;2022-10-19T08:07:50;102735.41;;;10.15;100.00
18436;BME280;9346;52.006;4.720;2022-10-19T08:10:17;102741.53;;;10.17;100.00
18436;BME280;9346;52.006;4.720;2022-10-19T08:12:44;102732.59;;;10.21;100.00
18436;BME280;9346;52.006;4.720;2022-10-19T08:15:13;102735.78;;;10.25;100.00
18436;BME280;9346;52.006;4.720;2022-10-19T08:17:40;102738.03;;;10.28;100.00
18436;BME280;9346;52.006;4.720;2022-10-19T08:20:08;102737.59;;;10.31;100.00
18436;BME280;9346;52.006;4.720;2022-10-19T08:22:36;102737.75;;;10.36;100.00
18436;BME280;9346;52.006;4.720;2022-10-19T08:25:03;102737.69;;;10.42;100.00
18436;BME280;9346;52.006;4.720;2022-10-19T08:27:31;102741.47;;;10.48;100.00
18436;BME280;9346;52.006;4.720;2022-10-19T08:29:58;102731.44;;;10.53;100.00
18436;BME280;9346;52.006;4.720;2022-10-19T08:32:27;102723.53;;;10.57;100.00
18436;BME280;9346;52.006;4.720;2022-10-19T08:34:53;102714.75;;;10.66;100.00
18436;BME280;9346;52.006;4.720;2022-10-19T08:37:20;102699.81;;;10.74;100.00
18436;BME280;9346;52.006;4.720;2022-10-19T08:39:47;102693.00;;;10.76;100.00
18436;BME280;9346;52.006;4.720;2022-10-19T08:42:17;102681.91;;;10.83;100.00
18436;BME280;9346;52.006;4.720;2022-10-19T08:47:50;102689.53;;;10.99;100.00
18436;BME280;9346;52.006;4.720;2022-10-19T08:50:22;102690.06;;;11.07;100.00
18436;BME280;9346;52.006;4.720;2022-10-19T08:52:53;102685.75;;;11.11;100.00
18436;BME280;9346;52.006;4.720;2022-10-19T08:55:35;102678.44;;;11.17;100.00
18436;BME280;9346;52.006;4.720;2022-10-19T08:58:15;102690.97;;;11.31;100.00
18436;BME280;9346;52.006;4.720;2022-10-19T09:00:51;102682.59;;;11.38;100.00
18436;BME280;9346;52.006;4.720;2022-10-19T09:03:34;102698.44;;;11.42;100.00
18436;BME280;9346;52.006;4.720;2022-10-19T09:06:09;102699.56;;;11.53;100.00
18436;BME280;9346;52.006;4.720;2022-10-19T09:08:44;102695.59;;;11.60;100.00
18436;BME280;9346;52.006;4.720;2022-10-19T09:11:13;102696.41;;;11.67;100.00
18436;BME280;9346;52.006;4.720;2022-10-19T09:13:43;102696.28;;;11.74;100.00
18436;BME280;9346;52.006;4.720;2022-10-19T09:16:13;102680.91;;;11.78;100.00
18436;BME280;9346;52.006;4.720;2022-10-19T09:18:44;102689.94;;;11.85;100.00
18436;BME280;9346;52.006;4.720;2022-10-19T09:21:15;102678.53;;;11.93;100.00
18436;BME280;9346;52.006;4.720;2022-10-19T09:23:49;102687.19;;;11.96;100.00
18436;BME280;9346;52.006;4.720;2022-10-19T09:26:23;102672.44;;;12.02;100.00
18436;BME280;9346;52.006;4.720;2022-10-19T09:28:54;102682.50;;;12.08;100.00
18436;BME280;9346;52.006;4.720;2022-10-19T09:31:27;102681.91;;;12.18;100.00
18436;BME280;9346;52.006;4.720;2022-10-19T09:34:02;102698.84;;;12.21;100.00
18436;BME280;9346;52.006;4.720;2022-10-19T09:36:36;102694.88;;;12.29;100.00
18436;BME280;9346;52.006;4.720;2022-10-19T09:39:04;102689.47;;;12.34;100.00
18436;BME280;9346;52.006;4.720;2022-10-19T09:41:32;102687.03;;;12.37;100.00
18436;BME280;9346;52.006;4.720;2022-10-19T09:43:59;102689.47;;;12.45;100.00
18436;BME280;9346;52.006;4.720;2022-10-19T09:46:37;102682.47;;;12.54;100.00
18436;BME280;9346;52.006;4.720;2022-10-19T09:49:09;102674.16;;;12.66;100.00
18436;BME280;9346;52.006;4.720;2022-10-19T09:51:39;102675.72;;;12.73;100.00
18436;BME280;9346;52.006;4.720;2022-10-19T09:54:25;102665.84;;;12.77;100.00
18436;BME280;9346;52.006;4.720;2022-10-19T09:56:54;102661.00;;;12.84;100.00
18436;BME280;9346;52.006;4.720;2022-10-19T09:59:23;102654.97;;;12.87;100.00
18436;BME280;9346;52.006;4.720;2022-10-19T10:02:14;102646.19;;;12.90;100.00
18436;BME280;9346;52.006;4.720;2022-10-19T10:04:46;102639.56;;;12.91;100.00
18436;BME280;9346;52.006;4.720;2022-10-19T10:07:24;102629.69;;;12.95;100.00
18436;BME280;9346;52.006;4.720;2022-10-19T10:09:53;102621.97;;;12.97;100.00
18436;BME280;9346;52.006;4.720;2022-10-19T10:12:21;102620.78;;;13.05;100.00
18436;BME280;9346;52.006;4.720;2022-10-19T10:14:49;102598.16;;;13.08;100.00
18436;BME280;9346;52.006;4.720;2022-10-19T10:17:18;102600.91;;;13.08;100.00
18436;BME280;9346;52.006;4.720;2022-10-19T10:20:01;102605.34;;;13.09;100.00
18436;BME280;9346;52.006;4.720;2022-10-19T10:22:32;102595.72;;;13.11;100.00
18436;BME280;9346;52.006;4.720;2022-10-19T10:25:00;102605.72;;;13.12;100.00
18436;BME280;9346;52.006;4.720;2022-10-19T10:27:30;102584.16;;;13.14;100.00
18436;BME280;9346;52.006;4.720;2022-10-19T10:29:58;102593.91;;;13.17;100.00
18436;BME280;9346;52.006;4.720;2022-10-19T10:32:25;102588.69;;;13.20;100.00
18436;BME280;9346;52.006;4.720;2022-10-19T10:35:00;102583.50;;;13.24;100.00
18436;BME280;9346;52.006;4.720;2022-10-19T10:37:30;102591.31;;;13.27;100.00
18436;BME280;9346;52.006;4.720;2022-10-19T10:40:00;102585.94;;;13.37;100.00
18436;BME280;9346;52.006;4.720;2022-10-19T10:42:31;102579.72;;;13.46;100.00
18436;BME280;9346;52.006;4.720;2022-10-19T10:45:00;102570.06;;;13.49;100.00
18436;BME280;9346;52.006;4.720;2022-10-19T10:47:28;102568.16;;;13.49;100.00
18436;BME280;9346;52.006;4.720;2022-10-19T10:50:00;102565.38;;;13.49;100.00
18436;BME280;9346;52.006;4.720;2022-10-19T10:52:30;102557.19;;;13.55;100.00
18436;BME280;9346;52.006;4.720;2022-10-19T10:54:59;102541.13;;;13.57;100.00
18436;BME280;9346;52.006;4.720;2022-10-19T10:57:29;102536.19;;;13.59;100.00
18436;BME280;9346;52.006;4.720;2022-10-19T11:00:03;102525.13;;;13.59;100.00
18436;BME280;9346;52.006;4.720;2022-10-19T11:02:39;102536.53;;;13.62;100.00
18436;BME280;9346;52.006;4.720;2022-10-19T11:05:14;102525.25;;;13.69;100.00
18436;BME280;9346;52.006;4.720;2022-10-19T11:07:45;102518.06;;;13.68;100.00
18436;BME280;9346;52.006;4.720;2022-10-19T11:10:21;102517.56;;;13.71;100.00
18436;BME280;9346;52.006;4.720;2022-10-19T11:12:57;102509.00;;;13.72;100.00
18436;BME280;9346;52.006;4.720;2022-10-19T11:15:27;102515.34;;;13.73;100.00
18436;BME280;9346;52.006;4.720;2022-10-19T11:18:07;102509.28;;;13.76;100.00
18436;BME280;9346;52.006;4.720;2022-10-19T11:20:47;102496.59;;;13.80;100.00
18436;BME280;9346;52.006;4.720;2022-10-19T11:23:19;102499.38;;;13.80;100.00
18436;BME280;9346;52.006;4.720;2022-10-19T11:25:57;102497.78;;;13.84;100.00
18436;BME280;9346;52.006;4.720;2022-10-19T11:28:44;102503.38;;;13.89;100.00
18436;BME280;9346;52.006;4.720;2022-10-19T11:31:18;102500.19;;;13.97;100.00
18436;BME280;9346;52.006;4.720;2022-10-19T11:33:53;102492.94;;;13.96;100.00
18436;BME280;9346;52.006;4.720;2022-10-19T11:36:38;102487.41;;;13.96;100.00
18436;BME280;9346;52.006;4.720;2022-10-19T11:39:20;102480.78;;;13.97;100.00
18436;BME280;9346;52.006;4.720;2022-10-19T11:42:01;102472.47;;;13.97;100.00
18436;BME280;9346;52.006;4.720;2022-10-19T11:44:41;102475.50;;;13.95;100.00
18436;BME280;9346;52.006;4.720;2022-10-19T11:47:27;102472.47;;;13.97;100.00
18436;BME280;9346;52.006;4.720;2022-10-19T11:50:07;102452.31;;;14.01;100.00
18436;BME280;9346;52.006;4.720;2022-10-19T11:52:43;102450.38;;;14.02;100.00
18436;BME280;9346;52.006;4.720;2022-10-19T11:55:23;102445.16;;;14.05;100.00
18436;BME280;9346;52.006;4.720;2022-10-19T11:57:58;102438.75;;;14.05;100.00
18436;BME280;9346;52.006;4.720;2022-10-19T12:00:34;102440.47;;;14.06;100.00
18436;BME280;9346;52.006;4.720;2022-10-19T12:03:41;102427.53;;;14.16;100.00
18436;BME280;9346;52.006;4.720;2022-10-19T12:06:22;102417.63;;;14.20;100.00
18436;BME280;9346;52.006;4.720;2022-10-19T12:09:04;102414.00;;;14.20;100.00
18436;BME280;9346;52.006;4.720;2022-10-19T12:11:48;102416.53;;;14.21;100.00
18436;BME280;9346;52.006;4.720;2022-10-19T12:14:21;102404.84;;;14.19;100.00
18436;BME280;9346;52.006;4.720;2022-10-19T12:16:53;102404.03;;;14.19;100.00
18436;BME280;9346;52.006;4.720;2022-10-19T12:19:24;102401.81;;;14.21;100.00
18436;BME280;9346;52.006;4.720;2022-10-19T12:21:54;102398.28;;;14.25;100.00
18436;BME280;9346;52.006;4.720;2022-10-19T12:24:28;102394.41;;;14.26;100.00
18436;BME280;9346;52.006;4.720;2022-10-19T12:26:57;102396.13;;;14.27;100.00
18436;BME280;9346;52.006;4.720;2022-10-19T12:29:27;102391.38;;;14.28;100.00
18436;BME280;9346;52.006;4.720;2022-10-19T12:31:56;102382.00;;;14.29;100.00
18436;BME280;9346;52.006;4.720;2022-10-19T12:34:30;102378.63;;;14.27;100.00
18436;BME280;9346;52.006;4.720;2022-10-19T12:37:10;102372.84;;;14.28;100.00
18436;BME280;9346;52.006;4.720;2022-10-19T12:39:42;102371.19;;;14.32;100.00
18436;BME280;9346;52.006;4.720;2022-10-19T12:42:19;102363.47;;;14.34;100.00
18436;BME280;9346;52.006;4.720;2022-10-19T12:45:07;102362.63;;;14.34;100.00
18436;BME280;9346;52.006;4.720;2022-10-19T12:47:38;102362.69;;;14.39;100.00
18436;BME280;9346;52.006;4.720;2022-10-19T12:50:06;102358.22;;;14.38;100.00
18436;BME280;9346;52.006;4.720;2022-10-19T12:52:37;102362.94;;;14.37;100.00
18436;BME280;9346;52.006;4.720;2022-10-19T12:55:17;102358.53;;;14.41;100.00
18436;BME280;9346;52.006;4.720;2022-10-19T12:57:57;102344.94;;;14.40;100.00
18436;BME280;9346;52.006;4.720;2022-10-19T13:00:28;102356.63;;;14.42;100.00
18436;BME280;9346;52.006;4.720;2022-10-19T13:02:59;102348.06;;;14.48;100.00
18436;BME280;9346;52.006;4.720;2022-10-19T13:05:30;102349.50;;;14.51;100.00
18436;BME280;9346;52.006;4.720;2022-10-19T13:08:00;102340.88;;;14.52;100.00
18436;BME280;9346;52.006;4.720;2022-10-19T13:10:31;102342.59;;;14.53;100.00
18436;BME280;9346;52.006;4.720;2022-10-19T13:12:58;102344.50;;;14.53;100.00
18436;BME280;9346;52.006;4.720;2022-10-19T13:15:50;102337.03;;;14.53;100.00